sensor_id;sensor_type;location;lat;lon;timestamp;P1;durP1;ratioP1;P2;durP2;ratioP2
44987;SDS011;35735;52.226;21.254;2024-03-06T00:03:20;63.83;;;40.37;;
44987;SDS011;35735;52.226;21.254;2024-03-06T00:09:02;64.05;;;39.63;;
44987;SDS011;35735;52.226;21.254;2024-03-06T00:14:44;56.70;;;37.55;;
44987;SDS011;35735;52.226;21.254;2024-03-06T00:20:29;56.40;;;36.67;;
44987;SDS011;35735;52.226;21.254;2024-03-06T00:26:11;56.27;;;35.57;;
44987;SDS011;35735;52.226;21.254;2024-03-06T00:31:53;50.35;;;34.55;;
44987;SDS011;35735;52.226;21.254;2024-03-06T00:37:35;48.57;;;35.37;;
44987;SDS011;35735;52.226;21.254;2024-03-06T00:43:17;45.12;;;32.88;;
44987;SDS011;35735;52.226;21.254;2024-03-06T00:48:59;43.50;;;30.37;;
44987;SDS011;35735;52.226;21.254;2024-03-06T00:54:40;44.17;;;30.85;;
44987;SDS011;35735;52.226;21.254;2024-03-06T01:00:22;40.58;;;29.30;;
44987;SDS011;35735;52.226;21.254;2024-03-06T01:06:04;40.50;;;28.27;;
44987;SDS011;35735;52.226;21.254;2024-03-06T01:11:46;39.60;;;27.17;;
44987;SDS011;35735;52.226;21.254;2024-03-06T01:17:28;40.30;;;26.60;;
44987;SDS011;35735;52.226;21.254;2024-03-06T01:23:10;34.77;;;25.87;;
44987;SDS011;35735;52.226;21.254;2024-03-06T01:28:54;38.25;;;24.95;;
44987;SDS011;35735;52.226;21.254;2024-03-06T01:34:36;31.63;;;24.00;;
44987;SDS011;35735;52.226;21.254;2024-03-06T01:40:18;31.93;;;23.13;;
44987;SDS011;35735;52.226;21.254;2024-03-06T01:45:59;31.67;;;22.85;;
44987;SDS011;35735;52.226;21.254;2024-03-06T01:51:42;30.15;;;22.45;;
44987;SDS011;35735;52.226;21.254;2024-03-06T01:57:30;31.98;;;22.08;;
44987;SDS011;35735;52.226;21.254;2024-03-06T02:03:15;27.87;;;20.73;;
44987;SDS011;35735;52.226;21.254;2024-03-06T02:08:57;28.10;;;20.90;;
44987;SDS011;35735;52.226;21.254;2024-03-06T02:14:39;27.08;;;20.23;;
44987;SDS011;35735;52.226;21.254;2024-03-06T02:20:24;27.57;;;19.63;;
44987;SDS011;35735;52.226;21.254;2024-03-06T02:26:06;29.08;;;18.98;;
44987;SDS011;35735;52.226;21.254;2024-03-06T02:31:48;28.70;;;19.70;;
44987;SDS011;35735;52.226;21.254;2024-03-06T02:37:30;27.95;;;19.15;;
44987;SDS011;35735;52.226;21.254;2024-03-06T02:43:12;22.08;;;17.62;;
44987;SDS011;35735;52.226;21.254;2024-03-06T02:48:54;25.88;;;18.85;;
44987;SDS011;35735;52.226;21.254;2024-03-06T02:54:35;24.85;;;18.75;;
44987;SDS011;35735;52.226;21.254;2024-03-06T03:00:17;28.40;;;19.00;;
44987;SDS011;35735;52.226;21.254;2024-03-06T03:05:59;24.08;;;18.62;;
44987;SDS011;35735;52.226;21.254;2024-03-06T03:11:42;30.73;;;18.65;;
44987;SDS011;35735;52.226;21.254;2024-03-06T03:17:24;25.50;;;18.17;;
44987;SDS011;35735;52.226;21.254;2024-03-06T03:23:06;23.70;;;18.25;;
44987;SDS011;35735;52.226;21.254;2024-03-06T03:28:48;25.25;;;17.80;;
44987;SDS011;35735;52.226;21.254;2024-03-06T03:34:29;26.62;;;17.92;;
44987;SDS011;35735;52.226;21.254;2024-03-06T03:40:11;22.10;;;17.50;;
44987;SDS011;35735;52.226;21.254;2024-03-06T03:45:56;23.33;;;16.67;;
44987;SDS011;35735;52.226;21.254;2024-03-06T03:51:39;23.38;;;18.12;;
44987;SDS011;35735;52.226;21.254;2024-03-06T03:57:21;24.27;;;18.00;;
44987;SDS011;35735;52.226;21.254;2024-03-06T04:03:03;28.42;;;18.33;;
44987;SDS011;35735;52.226;21.254;2024-03-06T04:08:45;22.83;;;16.92;;
44987;SDS011;35735;52.226;21.254;2024-03-06T04:14:27;24.92;;;18.70;;
44987;SDS011;35735;52.226;21.254;2024-03-06T04:20:11;27.13;;;19.33;;
44987;SDS011;35735;52.226;21.254;2024-03-06T04:25:53;27.17;;;18.52;;
44987;SDS011;35735;52.226;21.254;2024-03-06T04:31:37;26.62;;;18.17;;
44987;SDS011;35735;52.226;21.254;2024-03-06T04:37:22;23.95;;;17.85;;
44987;SDS011;35735;52.226;21.254;2024-03-06T04:43:06;27.80;;;18.63;;
44987;SDS011;35735;52.226;21.254;2024-03-06T04:48:48;25.83;;;17.65;;
44987;SDS011;35735;52.226;21.254;2024-03-06T04:54:32;27.42;;;19.70;;
44987;SDS011;35735;52.226;21.254;2024-03-06T05:00:14;28.20;;;19.98;;
44987;SDS011;35735;52.226;21.254;2024-03-06T05:05:56;29.23;;;18.45;;
44987;SDS011;35735;52.226;21.254;2024-03-06T05:11:38;25.30;;;17.80;;
44987;SDS011;35735;52.226;21.254;2024-03-06T05:17:22;25.97;;;18.50;;
44987;SDS011;35735;52.226;21.254;2024-03-06T05:23:13;25.58;;;18.25;;
44987;SDS011;35735;52.226;21.254;2024-03-06T05:28:58;29.90;;;19.08;;
44987;SDS011;35735;52.226;21.254;2024-03-06T05:34:39;26.40;;;16.92;;
44987;SDS011;35735;52.226;21.254;2024-03-06T05:40:21;21.97;;;16.00;;
44987;SDS011;35735;52.226;21.254;2024-03-06T05:46:03;23.02;;;17.33;;
44987;SDS011;35735;52.226;21.254;2024-03-06T05:51:45;22.65;;;16.77;;
44987;SDS011;35735;52.226;21.254;2024-03-06T05:57:27;23.67;;;17.42;;
44987;SDS011;35735;52.226;21.254;2024-03-06T06:03:09;23.53;;;16.93;;
44987;SDS011;35735;52.226;21.254;2024-03-06T06:08:51;24.73;;;16.58;;
44987;SDS011;35735;52.226;21.254;2024-03-06T06:14:32;21.55;;;15.35;;
44987;SDS011;35735;52.226;21.254;2024-03-06T06:20:14;20.17;;;13.98;;
44987;SDS011;35735;52.226;21.254;2024-03-06T06:25:56;19.90;;;14.43;;
44987;SDS011;35735;52.226;21.254;2024-03-06T06:31:38;19.98;;;13.85;;
44987;SDS011;35735;52.226;21.254;2024-03-06T06:37:20;18.52;;;13.98;;
44987;SDS011;35735;52.226;21.254;2024-03-06T06:43:02;17.55;;;12.75;;
44987;SDS011;35735;52.226;21.254;2024-03-06T06:48:44;19.58;;;13.90;;
44987;SDS011;35735;52.226;21.254;2024-03-06T06:54:25;18.33;;;14.05;;
44987;SDS011;35735;52.226;21.254;2024-03-06T07:00:07;22.30;;;15.02;;
44987;SDS011;35735;52.226;21.254;2024-03-06T07:05:50;19.42;;;14.43;;
44987;SDS011;35735;52.226;21.254;2024-03-06T07:11:31;21.73;;;14.05;;
44987;SDS011;35735;52.226;21.254;2024-03-06T07:17:13;20.00;;;13.05;;
44987;SDS011;35735;52.226;21.254;2024-03-06T07:22:55;17.85;;;12.52;;
44987;SDS011;35735;52.226;21.254;2024-03-06T07:28:37;19.20;;;13.05;;
44987;SDS011;35735;52.226;21.254;2024-03-06T07:34:19;22.67;;;13.13;;
44987;SDS011;35735;52.226;21.254;2024-03-06T07:40:02;20.27;;;13.88;;
44987;SDS011;35735;52.226;21.254;2024-03-06T07:45:44;22.48;;;14.40;;
44987;SDS011;35735;52.226;21.254;2024-03-06T07:51:25;20.53;;;14.30;;
44987;SDS011;35735;52.226;21.254;2024-03-06T07:57:07;19.35;;;14.18;;
44987;SDS011;35735;52.226;21.254;2024-03-06T08:02:49;22.25;;;15.02;;
44987;SDS011;35735;52.226;21.254;2024-03-06T08:08:31;25.02;;;16.25;;
44987;SDS011;35735;52.226;21.254;2024-03-06T08:14:13;23.67;;;15.38;;
44987;SDS011;35735;52.226;21.254;2024-03-06T08:19:55;22.83;;;16.05;;
44987;SDS011;35735;52.226;21.254;2024-03-06T08:25:36;23.08;;;15.00;;
44987;SDS011;35735;52.226;21.254;2024-03-06T08:31:18;22.00;;;14.73;;
44987;SDS011;35735;52.226;21.254;2024-03-06T08:37:03;25.45;;;14.82;;
44987;SDS011;35735;52.226;21.254;2024-03-06T08:42:45;22.55;;;14.20;;
44987;SDS011;35735;52.226;21.254;2024-03-06T08:48:30;22.23;;;14.02;;
44987;SDS011;35735;52.226;21.254;2024-03-06T08:54:11;23.07;;;13.17;;
44987;SDS011;35735;52.226;21.254;2024-03-06T08:59:54;20.40;;;13.02;;
44987;SDS011;35735;52.226;21.254;2024-03-06T09:05:35;21.98;;;14.48;;
44987;SDS011;35735;52.226;21.254;2024-03-06T09:11:17;20.27;;;12.52;;
44987;SDS011;35735;52.226;21.254;2024-03-06T09:16:59;21.83;;;14.48;;
44987;SDS011;35735;52.226;21.254;2024-03-06T09:22:42;21.53;;;13.80;;
44987;SDS011;35735;52.226;21.254;2024-03-06T09:28:23;24.00;;;14.27;;
44987;SDS011;35735;52.226;21.254;2024-03-06T09:34:05;23.15;;;14.38;;
44987;SDS011;35735;52.226;21.254;2024-03-06T09:39:47;23.33;;;14.63;;
44987;SDS011;35735;52.226;21.254;2024-03-06T09:45:29;22.45;;;14.52;;
44987;SDS011;35735;52.226;21.254;2024-03-06T09:51:11;24.40;;;15.53;;
44987;SDS011;35735;52.226;21.254;2024-03-06T09:56:53;25.65;;;14.98;;
44987;SDS011;35735;52.226;21.254;2024-03-06T10:02:38;27.55;;;16.02;;
44987;SDS011;35735;52.226;21.254;2024-03-06T10:08:36;23.93;;;14.37;;
44987;SDS011;35735;52.226;21.254;2024-03-06T10:14:17;27.90;;;15.32;;
44987;SDS011;35735;52.226;21.254;2024-03-06T10:19:59;23.77;;;15.02;;
44987;SDS011;35735;52.226;21.254;2024-03-06T10:25:42;22.58;;;13.10;;
44987;SDS011;35735;52.226;21.254;2024-03-06T10:31:28;18.87;;;13.25;;
44987;SDS011;35735;52.226;21.254;2024-03-06T10:37:10;19.95;;;13.43;;
44987;SDS011;35735;52.226;21.254;2024-03-06T10:42:51;19.95;;;13.23;;
44987;SDS011;35735;52.226;21.254;2024-03-06T10:48:33;16.10;;;10.98;;
44987;SDS011;35735;52.226;21.254;2024-03-06T10:54:17;18.52;;;11.35;;
44987;SDS011;35735;52.226;21.254;2024-03-06T11:00:00;17.75;;;11.70;;
44987;SDS011;35735;52.226;21.254;2024-03-06T11:05:44;18.02;;;10.68;;
44987;SDS011;35735;52.226;21.254;2024-03-06T11:11:26;14.43;;;9.82;;
44987;SDS011;35735;52.226;21.254;2024-03-06T11:17:09;12.13;;;9.05;;
44987;SDS011;35735;52.226;21.254;2024-03-06T11:28:40;14.02;;;8.75;;
44987;SDS011;35735;52.226;21.254;2024-03-06T11:34:22;13.00;;;8.73;;
44987;SDS011;35735;52.226;21.254;2024-03-06T11:40:04;12.55;;;8.55;;
44987;SDS011;35735;52.226;21.254;2024-03-06T11:45:46;14.63;;;8.73;;
44987;SDS011;35735;52.226;21.254;2024-03-06T11:51:28;13.02;;;8.38;;
44987;SDS011;35735;52.226;21.254;2024-03-06T11:57:10;11.95;;;8.38;;
44987;SDS011;35735;52.226;21.254;2024-03-06T12:02:52;15.35;;;8.23;;
44987;SDS011;35735;52.226;21.254;2024-03-06T12:08:34;12.75;;;8.13;;
44987;SDS011;35735;52.226;21.254;2024-03-06T12:14:19;15.07;;;8.30;;
44987;SDS011;35735;52.226;21.254;2024-03-06T12:20:01;10.68;;;7.28;;
44987;SDS011;35735;52.226;21.254;2024-03-06T12:25:43;10.13;;;6.93;;
44987;SDS011;35735;52.226;21.254;2024-03-06T12:31:25;9.93;;;6.43;;
44987;SDS011;35735;52.226;21.254;2024-03-06T12:37:10;12.30;;;7.87;;
44987;SDS011;35735;52.226;21.254;2024-03-06T12:42:51;10.27;;;6.93;;
44987;SDS011;35735;52.226;21.254;2024-03-06T12:48:33;10.57;;;7.12;;
44987;SDS011;35735;52.226;21.254;2024-03-06T12:54:15;11.40;;;7.33;;
44987;SDS011;35735;52.226;21.254;2024-03-06T12:59:57;10.57;;;6.95;;
44987;SDS011;35735;52.226;21.254;2024-03-06T13:05:39;12.00;;;6.95;;
44987;SDS011;35735;52.226;21.254;2024-03-06T13:11:21;13.02;;;6.60;;
44987;SDS011;35735;52.226;21.254;2024-03-06T13:17:03;11.60;;;7.30;;
44987;SDS011;35735;52.226;21.254;2024-03-06T13:22:44;12.07;;;7.30;;
44987;SDS011;35735;52.226;21.254;2024-03-06T13:28:26;9.87;;;6.00;;
44987;SDS011;35735;52.226;21.254;2024-03-06T13:34:08;10.60;;;6.65;;
44987;SDS011;35735;52.226;21.254;2024-03-06T13:39:50;10.18;;;6.07;;
44987;SDS011;35735;52.226;21.254;2024-03-06T13:45:32;12.00;;;6.85;;
44987;SDS011;35735;52.226;21.254;2024-03-06T13:51:14;10.37;;;6.90;;
44987;SDS011;35735;52.226;21.254;2024-03-06T13:56:55;12.40;;;7.87;;
44987;SDS011;35735;52.226;21.254;2024-03-06T14:02:37;13.07;;;7.43;;
44987;SDS011;35735;52.226;21.254;2024-03-06T14:08:20;13.83;;;8.13;;
44987;SDS011;35735;52.226;21.254;2024-03-06T14:14:02;11.80;;;9.20;;
44987;SDS011;35735;52.226;21.254;2024-03-06T14:19:44;12.82;;;8.50;;
44987;SDS011;35735;52.226;21.254;2024-03-06T14:25:26;14.10;;;8.90;;
44987;SDS011;35735;52.226;21.254;2024-03-06T14:31:08;15.88;;;8.75;;
44987;SDS011;35735;52.226;21.254;2024-03-06T14:36:50;14.75;;;8.82;;
44987;SDS011;35735;52.226;21.254;2024-03-06T14:42:32;20.87;;;9.20;;
44987;SDS011;35735;52.226;21.254;2024-03-06T14:48:14;15.73;;;9.03;;
44987;SDS011;35735;52.226;21.254;2024-03-06T14:53:56;12.65;;;8.43;;
44987;SDS011;35735;52.226;21.254;2024-03-06T14:59:38;14.70;;;8.43;;
44987;SDS011;35735;52.226;21.254;2024-03-06T15:05:20;17.25;;;8.43;;
44987;SDS011;35735;52.226;21.254;2024-03-06T15:11:02;11.02;;;7.45;;
44987;SDS011;35735;52.226;21.254;2024-03-06T15:16:45;13.10;;;6.95;;
44987;SDS011;35735;52.226;21.254;2024-03-06T15:22:26;11.38;;;6.85;;
44987;SDS011;35735;52.226;21.254;2024-03-06T15:28:08;13.60;;;6.60;;
44987;SDS011;35735;52.226;21.254;2024-03-06T15:33:51;11.02;;;6.78;;
44987;SDS011;35735;52.226;21.254;2024-03-06T15:39:33;11.73;;;6.50;;
44987;SDS011;35735;52.226;21.254;2024-03-06T15:45:15;10.65;;;7.00;;
44987;SDS011;35735;52.226;21.254;2024-03-06T15:50:57;11.10;;;7.10;;
44987;SDS011;35735;52.226;21.254;2024-03-06T15:56:39;11.77;;;7.47;;
44987;SDS011;35735;52.226;21.254;2024-03-06T16:02:21;14.68;;;7.80;;
44987;SDS011;35735;52.226;21.254;2024-03-06T16:08:03;11.77;;;6.90;;
44987;SDS011;35735;52.226;21.254;2024-03-06T16:13:45;12.97;;;8.23;;
44987;SDS011;35735;52.226;21.254;2024-03-06T16:19:26;14.07;;;8.55;;
44987;SDS011;35735;52.226;21.254;2024-03-06T16:25:08;14.17;;;8.90;;
44987;SDS011;35735;52.226;21.254;2024-03-06T16:30:50;18.30;;;9.10;;
44987;SDS011;35735;52.226;21.254;2024-03-06T16:36:32;20.73;;;10.15;;
44987;SDS011;35735;52.226;21.254;2024-03-06T16:42:14;20.15;;;11.50;;
44987;SDS011;35735;52.226;21.254;2024-03-06T16:47:56;16.80;;;11.27;;
44987;SDS011;35735;52.226;21.254;2024-03-06T16:53:38;19.23;;;11.02;;
44987;SDS011;35735;52.226;21.254;2024-03-06T16:59:20;15.10;;;10.47;;
44987;SDS011;35735;52.226;21.254;2024-03-06T17:05:03;20.30;;;10.77;;
44987;SDS011;35735;52.226;21.254;2024-03-06T17:10:46;33.37;;;14.37;;
44987;SDS011;35735;52.226;21.254;2024-03-06T17:16:28;30.52;;;15.60;;
44987;SDS011;35735;52.226;21.254;2024-03-06T17:22:12;27.33;;;15.98;;
44987;SDS011;35735;52.226;21.254;2024-03-06T17:27:54;32.33;;;17.25;;
44987;SDS011;35735;52.226;21.254;2024-03-06T17:33:37;32.47;;;16.97;;
44987;SDS011;35735;52.226;21.254;2024-03-06T17:39:18;29.15;;;18.62;;
44987;SDS011;35735;52.226;21.254;2024-03-06T17:45:00;30.98;;;18.83;;
44987;SDS011;35735;52.226;21.254;2024-03-06T17:50:42;31.48;;;18.48;;
44987;SDS011;35735;52.226;21.254;2024-03-06T17:56:24;34.40;;;17.73;;
44987;SDS011;35735;52.226;21.254;2024-03-06T18:02:06;30.80;;;17.17;;
44987;SDS011;35735;52.226;21.254;2024-03-06T18:07:48;27.37;;;15.50;;
44987;SDS011;35735;52.226;21.254;2024-03-06T18:13:33;28.80;;;16.12;;
44987;SDS011;35735;52.226;21.254;2024-03-06T18:19:15;30.33;;;17.17;;
44987;SDS011;35735;52.226;21.254;2024-03-06T18:24:57;31.95;;;17.73;;
44987;SDS011;35735;52.226;21.254;2024-03-06T18:30:39;30.08;;;17.67;;
44987;SDS011;35735;52.226;21.254;2024-03-06T18:36:21;31.10;;;18.65;;
44987;SDS011;35735;52.226;21.254;2024-03-06T18:42:03;28.12;;;18.17;;
44987;SDS011;35735;52.226;21.254;2024-03-06T18:47:45;32.90;;;20.10;;
44987;SDS011;35735;52.226;21.254;2024-03-06T18:53:27;39.30;;;24.65;;
44987;SDS011;35735;52.226;21.254;2024-03-06T18:59:08;42.72;;;24.90;;
44987;SDS011;35735;52.226;21.254;2024-03-06T19:04:50;41.53;;;24.02;;
44987;SDS011;35735;52.226;21.254;2024-03-06T19:10:32;34.40;;;20.50;;
44987;SDS011;35735;52.226;21.254;2024-03-06T19:16:14;40.90;;;22.33;;
44987;SDS011;35735;52.226;21.254;2024-03-06T19:21:56;38.15;;;21.70;;
44987;SDS011;35735;52.226;21.254;2024-03-06T19:27:38;33.50;;;20.80;;
44987;SDS011;35735;52.226;21.254;2024-03-06T19:33:20;31.80;;;18.15;;
44987;SDS011;35735;52.226;21.254;2024-03-06T19:39:02;33.70;;;18.98;;
44987;SDS011;35735;52.226;21.254;2024-03-06T19:44:44;28.42;;;17.35;;
44987;SDS011;35735;52.226;21.254;2024-03-06T19:50:26;29.50;;;17.70;;
44987;SDS011;35735;52.226;21.254;2024-03-06T19:56:08;35.73;;;20.70;;
44987;SDS011;35735;52.226;21.254;2024-03-06T20:01:49;39.50;;;21.58;;
44987;SDS011;35735;52.226;21.254;2024-03-06T20:07:31;30.45;;;16.80;;
44987;SDS011;35735;52.226;21.254;2024-03-06T20:13:14;30.70;;;17.30;;
44987;SDS011;35735;52.226;21.254;2024-03-06T20:18:56;28.17;;;16.40;;
44987;SDS011;35735;52.226;21.254;2024-03-06T20:24:38;30.77;;;18.20;;
44987;SDS011;35735;52.226;21.254;2024-03-06T20:30:20;31.53;;;18.33;;
44987;SDS011;35735;52.226;21.254;2024-03-06T20:36:02;29.12;;;17.62;;
44987;SDS011;35735;52.226;21.254;2024-03-06T20:41:44;23.80;;;16.10;;
44987;SDS011;35735;52.226;21.254;2024-03-06T20:47:27;24.00;;;15.60;;
44987;SDS011;35735;52.226;21.254;2024-03-06T20:53:09;27.58;;;16.26;;
44987;SDS011;35735;52.226;21.254;2024-03-06T20:58:51;27.13;;;16.17;;
44987;SDS011;35735;52.226;21.254;2024-03-06T21:04:32;25.52;;;16.35;;
44987;SDS011;35735;52.226;21.254;2024-03-06T21:10:14;28.93;;;17.27;;
44987;SDS011;35735;52.226;21.254;2024-03-06T21:15:56;24.77;;;16.50;;
44987;SDS011;35735;52.226;21.254;2024-03-06T21:21:40;23.87;;;15.68;;
44987;SDS011;35735;52.226;21.254;2024-03-06T21:27:22;25.70;;;16.67;;
44987;SDS011;35735;52.226;21.254;2024-03-06T21:33:04;28.65;;;17.60;;
44987;SDS011;35735;52.226;21.254;2024-03-06T21:38:46;25.48;;;16.90;;
44987;SDS011;35735;52.226;21.254;2024-03-06T21:44:28;24.85;;;16.02;;
44987;SDS011;35735;52.226;21.254;2024-03-06T21:50:10;27.40;;;16.40;;
44987;SDS011;35735;52.226;21.254;2024-03-06T21:55:51;26.75;;;17.15;;
44987;SDS011;35735;52.226;21.254;2024-03-06T22:01:33;23.20;;;15.88;;
44987;SDS011;35735;52.226;21.254;2024-03-06T22:07:15;23.70;;;15.43;;
44987;SDS011;35735;52.226;21.254;2024-03-06T22:13:00;25.02;;;15.88;;
44987;SDS011;35735;52.226;21.254;2024-03-06T22:18:42;24.77;;;16.48;;
44987;SDS011;35735;52.226;21.254;2024-03-06T22:24:24;22.05;;;15.52;;
44987;SDS011;35735;52.226;21.254;2024-03-06T22:30:06;26.17;;;16.75;;
44987;SDS011;35735;52.226;21.254;2024-03-06T22:35:48;22.75;;;15.90;;
44987;SDS011;35735;52.226;21.254;2024-03-06T22:41:30;23.92;;;14.60;;
44987;SDS011;35735;52.226;21.254;2024-03-06T22:47:12;24.67;;;15.10;;
44987;SDS011;35735;52.226;21.254;2024-03-06T22:52:53;24.45;;;15.18;;
44987;SDS011;35735;52.226;21.254;2024-03-06T22:58:35;25.83;;;15.75;;
44987;SDS011;35735;52.226;21.254;2024-03-06T23:04:17;24.35;;;15.55;;
44987;SDS011;35735;52.226;21.254;2024-03-06T23:09:59;23.40;;;15.90;;
44987;SDS011;35735;52.226;21.254;2024-03-06T23:15:44;23.40;;;14.85;;
44987;SDS011;35735;52.226;21.254;2024-03-06T23:21:26;22.65;;;14.07;;
44987;SDS011;35735;52.226;21.254;2024-03-06T23:27:08;24.45;;;14.23;;
44987;SDS011;35735;52.226;21.254;2024-03-06T23:32:50;21.77;;;14.15;;
44987;SDS011;35735;52.226;21.254;2024-03-06T23:38:32;22.02;;;13.93;;
44987;SDS011;35735;52.226;21.254;2024-03-06T23:44:14;18.25;;;13.52;;
44987;SDS011;35735;52.226;21.254;2024-03-06T23:49:56;22.05;;;14.48;;
44987;SDS011;35735;52.226;21.254;2024-03-06T23:55:41;20.40;;;14.27;;
